Time;durP1;ratioP1;P1;durP2;ratioP2;P2;SDS_P1;SDS_P2;PMS_P1;PMS_P2;Temp;Humidity;BMP_temperature;BMP_pressure;BME280_temperature;BME280_humidity;BME280_pressure;Samples;Min_cycle;Max_cycle;Signal;HPM_P1;HPM_P2
2023/01/24 00:01:28;;;;;;;14.50;7.93;;;3.00;99.90;;;;;;4999597;28;20430;-96
2023/01/24 00:03:56;;;;;;;20.63;9.80;;;2.80;99.90;;;;;;4999183;28;20462;-94
2023/01/24 00:06:22;;;;;;;17.60;9.27;;;3.00;99.90;;;;;;4997603;28;20212;-93
2023/01/24 00:08:50;;;;;;;20.60;7.90;;;3.10;99.90;;;;;;4989143;28;20427;-95
2023/01/24 00:11:16;;;;;;;15.10;8.50;;;3.10;99.90;;;;;;4990763;28;20179;-95
2023/01/24 00:13:43;;;;;;;16.23;10.03;;;3.10;99.90;;;;;;5005552;28;20446;-95
2023/01/24 00:16:22;;;;;;;14.80;8.50;;;3.10;99.90;;;;;;5006124;28;20258;-95
2023/01/24 00:18:49;;;;;;;16.07;10.03;;;3.10;99.90;;;;;;4988903;28;20439;-95
2023/01/24 00:21:19;;;;;;;12.47;7.43;;;3.10;99.90;;;;;;4958786;28;20440;-95
2023/01/24 00:23:49;;;;;;;18.57;9.60;;;3.10;99.90;;;;;;4969213;28;20514;-96
2023/01/24 00:26:18;;;;;;;14.17;9.03;;;3.10;99.90;;;;;;4957541;28;20991;-95
2023/01/24 00:28:44;;;;;;;14.23;7.63;;;3.10;99.90;;;;;;4972081;28;20499;-96
2023/01/24 00:31:11;;;;;;;15.27;7.97;;;3.10;99.90;;;;;;4971890;28;20455;-96
2023/01/24 00:33:38;;;;;;;14.13;7.50;;;3.10;99.90;;;;;;4970753;28;20423;-95
2023/01/24 00:36:05;;;;;;;16.10;7.30;;;3.10;99.90;;;;;;4970873;28;20442;-96
2023/01/24 00:38:33;;;;;;;15.17;8.83;;;3.00;99.90;;;;;;4955096;28;20429;-94
2023/01/24 00:40:58;;;;;;;17.00;8.17;;;3.10;99.90;;;;;;4970779;28;20434;-95
2023/01/24 00:43:26;;;;;;;18.93;8.53;;;3.00;99.90;;;;;;4987257;28;20436;-93
2023/01/24 00:45:51;;;;;;;16.23;7.40;;;3.00;99.90;;;;;;4991265;28;20432;-96
2023/01/24 00:48:17;;;;;;;15.33;8.87;;;3.00;99.90;;;;;;4959932;28;20760;-96
2023/01/24 00:50:43;;;;;;;18.67;10.40;;;3.00;99.90;;;;;;4979671;28;20689;-91
2023/01/24 00:53:08;;;;;;;17.10;7.87;;;3.00;99.90;;;;;;4977196;28;20187;-95
2023/01/24 00:55:47;;;;;;;17.50;9.07;;;3.10;99.90;;;;;;4994384;28;20194;-87
2023/01/24 01:00:54;;;;;;;17.17;9.37;;;3.00;99.90;;;;;;5053936;23;20480;-88
2023/01/24 01:08:55;;;;;;;18.53;7.70;;;3.00;99.90;;;;;;4975495;28;20472;-86
2023/01/24 01:11:21;;;;;;;14.33;7.50;;;3.00;99.90;;;;;;4960885;23;20519;-86
2023/01/24 01:13:48;;;;;;;15.13;8.70;;;3.00;99.90;;;;;;4987543;23;20490;-86
2023/01/24 01:16:16;;;;;;;15.33;8.27;;;3.00;99.90;;;;;;4993781;28;20177;-86
2023/01/24 01:18:56;;;;;;;16.13;8.17;;;3.00;99.90;;;;;;4997427;28;20512;-86
2023/01/24 01:21:22;;;;;;;17.13;10.23;;;3.00;99.90;;;;;;4995096;28;20430;-94
2023/01/24 01:23:48;;;;;;;17.60;10.50;;;3.00;99.90;;;;;;4993801;28;20435;-89
2023/01/24 01:26:17;;;;;;;16.13;8.37;;;3.00;99.90;;;;;;4996737;28;20432;-96
2023/01/24 01:28:43;;;;;;;15.20;8.67;;;2.90;99.90;;;;;;4995053;28;20182;-86
2023/01/24 01:31:08;;;;;;;18.00;9.53;;;2.90;99.90;;;;;;4985163;28;20958;-96
2023/01/24 01:33:34;;;;;;;12.70;8.30;;;3.00;99.90;;;;;;5000673;28;20156;-88
2023/01/24 01:36:02;;;;;;;15.20;7.77;;;3.00;99.90;;;;;;5021038;23;20235;-87
2023/01/24 01:38:28;;;;;;;18.30;7.83;;;2.90;99.90;;;;;;5011445;23;20217;-88
2023/01/24 01:40:54;;;;;;;16.13;8.73;;;3.00;99.90;;;;;;5058680;23;20475;-88
2023/01/24 01:44:37;;;;;;;16.57;8.00;;;2.90;99.90;;;;;;4969757;23;20240;-87
2023/01/24 01:46:33;;;;;;;18.63;7.90;;;2.90;99.90;;;;;;4963681;28;20416;-88
2023/01/24 01:49:05;;;;;;;15.80;7.63;;;2.90;99.90;;;;;;4947167;28;20501;-88
2023/01/24 01:51:41;;;;;;;12.27;6.47;;;2.90;99.90;;;;;;4963378;28;20405;-88
2023/01/24 01:56:57;;;;;;;18.37;8.60;;;2.90;99.90;;;;;;5097201;23;20484;-87
2023/01/24 01:59:30;;;;;;;14.40;8.10;;;2.90;99.90;;;;;;4985383;23;20468;-88
2023/01/24 02:04:58;;;;;;;15.63;9.77;;;2.80;99.90;;;;;;5368428;23;20517;-88
2023/01/24 02:10:23;;;;;;;18.53;8.67;;;2.90;99.90;;;;;;5096591;23;20472;-88
2023/01/24 02:16:03;;;;;;;13.27;8.90;;;2.90;99.90;;;;;;5042935;23;20501;-88
2023/01/24 02:18:38;;;;;;;19.53;9.30;;;2.80;99.90;;;;;;4986031;23;20414;-88
2023/01/24 02:21:08;;;;;;;12.87;8.40;;;2.80;99.90;;;;;;4961097;29;20460;-88
2023/01/24 02:28:59;;;;;;;11.53;7.67;;;2.80;99.90;;;;;;5067524;23;20496;-88
2023/01/24 02:31:50;;;;;;;10.70;7.03;;;2.80;99.90;;;;;;4954855;23;20222;-88
2023/01/24 02:34:15;;;;;;;13.73;8.60;;;2.90;99.90;;;;;;4962217;28;20438;-87
2023/01/24 02:36:41;;;;;;;13.03;7.93;;;2.70;99.90;;;;;;4978232;23;20556;-88
2023/01/24 02:39:13;;;;;;;18.00;9.60;;;2.80;99.90;;;;;;4980340;28;20173;-92
2023/01/24 02:41:45;;;;;;;11.07;7.03;;;2.80;99.90;;;;;;4965146;28;20439;-88
2023/01/24 02:44:37;;;;;;;15.77;8.30;;;2.90;99.90;;;;;;4965294;28;20444;-88
2023/01/24 02:47:03;;;;;;;15.07;7.60;;;2.90;99.90;;;;;;4980877;28;20506;-89
2023/01/24 02:53:29;;;;;;;14.97;7.60;;;2.80;99.90;;;;;;5004627;23;20500;-88
2023/01/24 03:00:35;;;;;;;18.00;7.83;;;2.80;99.90;;;;;;4950669;23;20469;-88
2023/01/24 03:03:26;;;;;;;12.97;7.87;;;2.70;99.90;;;;;;4970449;23;20466;-88
2023/01/24 03:05:57;;;;;;;19.30;8.30;;;2.50;99.90;;;;;;4958013;28;20424;-88
2023/01/24 03:09:18;;;;;;;13.80;8.07;;;2.80;99.90;;;;;;4965754;23;20483;-88
2023/01/24 03:11:49;;;;;;;11.97;7.03;;;2.80;99.90;;;;;;4958810;29;20459;-87
2023/01/24 03:36:31;;;;;;;12.90;6.83;;;2.80;99.90;;;;;;5071574;23;20547;-88
2023/01/24 03:41:41;;;;;;;15.70;8.90;;;2.80;99.90;;;;;;4979667;28;20453;-94
2023/01/24 03:44:06;;;;;;;11.00;7.50;;;2.80;99.90;;;;;;4966360;23;20491;-93
2023/01/24 03:46:39;;;;;;;13.23;7.23;;;2.60;99.90;;;;;;4962590;28;20170;-89
2023/01/24 03:49:08;;;;;;;12.83;6.87;;;2.80;99.90;;;;;;5000589;23;20281;-89
2023/01/24 03:57:50;;;;;;;9.60;5.80;;;2.80;99.90;;;;;;4978683;28;20417;-90
2023/01/24 04:00:18;;;;;;;8.77;5.67;;;2.80;99.90;;;;;;5064224;23;20552;-89
2023/01/24 04:02:49;;;;;;;8.90;5.37;;;2.80;99.90;;;;;;4956002;28;20533;-88
2023/01/24 04:05:15;;;;;;;12.60;5.47;;;2.90;99.90;;;;;;4964068;28;20481;-88
2023/01/24 04:07:47;;;;;;;17.50;6.90;;;2.80;99.90;;;;;;4964486;28;20437;-88
2023/01/24 04:10:17;;;;;;;12.53;4.70;;;2.90;99.90;;;;;;5007886;23;20243;-88
2023/01/24 04:12:47;;;;;;;10.97;6.57;;;2.90;99.90;;;;;;4962692;23;20469;-89
2023/01/24 04:15:19;;;;;;;10.83;6.63;;;2.90;99.90;;;;;;4928609;29;20418;-90
2023/01/24 04:17:45;;;;;;;11.00;5.53;;;2.90;99.90;;;;;;4958649;29;20446;-95
2023/01/24 04:20:11;;;;;;;8.67;4.90;;;2.90;99.90;;;;;;4956082;29;20430;-89
2023/01/24 04:25:02;;;;;;;11.67;6.40;;;2.90;99.90;;;;;;5122147;23;20492;-92
2023/01/24 04:27:27;;;;;;;8.00;5.00;;;2.90;99.90;;;;;;4947597;28;20245;-94
2023/01/24 04:30:19;;;;;;;9.10;5.13;;;2.90;99.90;;;;;;4953862;23;20218;-88
2023/01/24 04:32:44;;;;;;;11.63;5.60;;;2.90;99.90;;;;;;4957527;29;20167;-88
2023/01/24 04:35:19;;;;;;;9.87;6.30;;;2.90;99.90;;;;;;4936007;29;20416;-88
2023/01/24 04:37:45;;;;;;;10.03;5.20;;;2.90;99.90;;;;;;4941781;29;20220;-89
2023/01/24 04:40:10;;;;;;;8.07;4.20;;;2.90;99.90;;;;;;4941614;29;20424;-90
2023/01/24 04:42:37;;;;;;;6.13;3.20;;;2.80;99.90;;;;;;4934877;29;20594;-94
2023/01/24 04:45:03;;;;;;;8.00;4.77;;;2.70;99.90;;;;;;4947091;29;20528;-95
2023/01/24 04:47:29;;;;;;;7.40;4.07;;;2.80;99.90;;;;;;4947516;29;20423;-95
2023/01/24 04:49:54;;;;;;;5.00;3.20;;;2.80;99.90;;;;;;4947583;29;20470;-96
2023/01/24 04:52:20;;;;;;;5.80;3.07;;;2.80;99.90;;;;;;4949566;29;20215;-96
2023/01/24 04:54:45;;;;;;;3.77;2.57;;;2.70;99.90;;;;;;4946918;29;20186;-94
2023/01/24 04:57:11;;;;;;;6.23;2.97;;;2.70;68.00;;;;;;4947075;29;20178;-96
2023/01/24 04:59:37;;;;;;;5.80;3.13;;;2.80;82.00;;;;;;4953143;29;20195;-89
2023/01/24 05:02:06;;;;;;;5.80;3.37;;;2.80;66.50;;;;;;5096650;23;20524;-89
2023/01/24 05:04:57;;;;;;;6.23;3.67;;;2.90;99.90;;;;;;5151602;23;20287;-90
2023/01/24 05:07:22;;;;;;;5.30;3.70;;;3.00;99.90;;;;;;4975452;29;20430;-87
2023/01/24 05:09:48;;;;;;;9.57;5.00;;;2.90;99.90;;;;;;4953341;28;20486;-96
2023/01/24 05:12:13;;;;;;;8.20;4.13;;;2.90;83.80;;;;;;4945035;29;20181;-95
2023/01/24 05:14:39;;;;;;;8.20;4.07;;;2.90;99.90;;;;;;4944270;29;20182;-95
2023/01/24 05:17:05;;;;;;;7.80;4.53;;;2.90;99.90;;;;;;4945245;29;20269;-95
2023/01/24 05:19:33;;;;;;;8.80;5.40;;;2.90;99.90;;;;;;4942911;29;20185;-96
2023/01/24 05:21:58;;;;;;;7.03;4.03;;;2.90;99.90;;;;;;4951044;29;20440;-96
2023/01/24 05:24:24;;;;;;;8.90;4.90;;;2.90;99.90;;;;;;4956841;29;20492;-90
2023/01/24 05:26:52;;;;;;;8.80;4.80;;;2.90;99.90;;;;;;4961658;28;20167;-88
2023/01/24 05:29:18;;;;;;;7.17;3.50;;;2.90;99.90;;;;;;4962952;29;20193;-87
2023/01/24 05:31:43;;;;;;;6.27;3.90;;;2.80;40.80;;;;;;4941874;29;20444;-96
2023/01/24 05:34:09;;;;;;;8.23;3.63;;;2.80;91.90;;;;;;4950791;29;20237;-96
2023/01/24 05:36:36;;;;;;;9.00;3.80;;;2.80;99.90;;;;;;4955673;28;20183;-96
2023/01/24 05:39:01;;;;;;;8.10;3.47;;;2.70;18.80;;;;;;4943903;29;20173;-96
2023/01/24 05:41:27;;;;;;;8.60;4.70;;;2.80;1.00;;;;;;4941570;29;20460;-94
2023/01/24 05:43:52;;;;;;;9.03;3.77;;;2.90;1.00;;;;;;4954224;29;20263;-96
2023/01/24 05:46:20;;;;;;;6.90;3.33;;;2.80;1.00;;;;;;4947160;29;20190;-89
2023/01/24 05:48:47;;;;;;;5.47;3.37;;;2.90;1.00;;;;;;4960580;29;20429;-94
2023/01/24 05:51:15;;;;;;;5.30;3.80;;;2.90;91.00;;;;;;4942451;29;20507;-96
2023/01/24 05:53:42;;;;;;;10.53;5.17;;;2.80;1.00;;;;;;4941738;29;20427;-95
2023/01/24 05:56:13;;;;;;;5.93;3.87;;;2.90;1.00;;;;;;4966346;28;20432;-92
2023/01/24 05:58:39;;;;;;;6.20;4.00;;;2.80;1.00;;;;;;4978572;28;20430;-88
2023/01/24 06:01:09;;;;;;;6.47;3.20;;;2.90;1.00;;;;;;4964412;28;20455;-87
2023/01/24 06:03:38;;;;;;;5.77;3.67;;;2.80;1.00;;;;;;4962403;29;20433;-93
2023/01/24 06:06:04;;;;;;;5.07;3.73;;;2.80;1.00;;;;;;4977101;29;20471;-95
2023/01/24 06:08:36;;;;;;;6.87;3.43;;;2.80;23.40;;;;;;4959721;29;20416;-90
2023/01/24 06:11:07;;;;;;;6.70;3.40;;;2.80;43.20;;;;;;4979748;29;20264;-93
2023/01/24 06:13:33;;;;;;;7.47;4.30;;;2.80;96.90;;;;;;4960269;29;20405;-95
2023/01/24 06:16:10;;;;;;;4.77;3.50;;;2.80;88.30;;;;;;4958998;29;20496;-93
2023/01/24 06:18:44;;;;;;;7.50;3.90;;;2.80;91.90;;;;;;4961220;28;20169;-91
2023/01/24 06:21:45;;;;;;;9.10;4.50;;;2.80;21.70;;;;;;4958818;29;20424;-88
2023/01/24 06:24:38;;;;;;;7.93;4.97;;;2.80;1.00;;;;;;4939245;29;20416;-88
2023/01/24 06:32:10;;;;;;;5.63;2.90;;;2.80;1.00;;;;;;4990626;23;20224;-88
2023/01/24 06:35:07;;;;;;;5.67;3.40;;;2.50;1.00;;;;;;4981851;28;20445;-90
2023/01/24 06:37:44;;;;;;;8.57;4.40;;;2.70;63.40;;;;;;4978278;28;20512;-90
2023/01/24 06:42:35;;;;;;;10.00;4.80;;;2.80;1.00;;;;;;5000181;23;20507;-93
2023/01/24 06:45:01;;;;;;;6.70;3.97;;;2.80;1.00;;;;;;4961607;29;20166;-87
2023/01/24 06:47:30;;;;;;;4.83;3.27;;;2.40;1.00;;;;;;4969819;28;20878;-84
2023/01/24 06:49:58;;;;;;;9.60;4.17;;;2.70;1.00;;;;;;4963814;29;20219;-90
2023/01/24 06:52:24;;;;;;;6.23;3.63;;;2.80;1.00;;;;;;4945936;29;20428;-89
2023/01/24 06:54:49;;;;;;;5.73;4.33;;;2.70;1.00;;;;;;4961405;29;20437;-94
2023/01/24 06:57:15;;;;;;;5.57;3.80;;;2.70;1.00;;;;;;4946577;29;20181;-95
2023/01/24 06:59:40;;;;;;;5.80;4.30;;;2.70;1.00;;;;;;4948169;29;20184;-92
2023/01/24 07:02:09;;;;;;;4.80;3.40;;;2.80;45.60;;;;;;4947422;29;20181;-95
2023/01/24 07:04:36;;;;;;;5.90;4.57;;;2.80;24.90;;;;;;4945821;29;20188;-94
2023/01/24 07:07:06;;;;;;;5.37;3.60;;;2.80;99.90;;;;;;4945951;29;20434;-90
2023/01/24 07:09:32;;;;;;;11.20;4.50;;;2.80;99.90;;;;;;4944147;29;20488;-94
2023/01/24 07:11:58;;;;;;;7.00;3.13;;;2.70;75.50;;;;;;4944840;29;20431;-94
2023/01/24 07:14:25;;;;;;;7.77;4.27;;;2.80;99.90;;;;;;4949413;29;20518;-94
2023/01/24 07:16:51;;;;;;;5.03;3.77;;;2.70;16.00;;;;;;4960979;29;20202;-92
2023/01/24 07:19:21;;;;;;;9.90;5.00;;;2.70;99.90;;;;;;4948597;29;20431;-94
2023/01/24 07:21:47;;;;;;;7.37;3.97;;;2.70;99.90;;;;;;4946349;29;20445;-96
2023/01/24 07:24:15;;;;;;;8.07;3.90;;;2.70;35.10;;;;;;4945537;29;20426;-93
2023/01/24 07:26:42;;;;;;;9.93;5.03;;;2.70;54.60;;;;;;4943702;29;20428;-95
2023/01/24 07:29:08;;;;;;;5.47;3.20;;;2.70;25.00;;;;;;4944821;29;20458;-95
2023/01/24 07:31:37;;;;;;;7.23;4.37;;;2.70;66.50;;;;;;4943604;29;20440;-94
2023/01/24 07:34:03;;;;;;;4.63;3.27;;;2.80;99.90;;;;;;4959322;29;20166;-86
2023/01/24 07:36:29;;;;;;;6.93;4.07;;;2.70;99.90;;;;;;4940381;29;20425;-92
2023/01/24 07:38:55;;;;;;;5.93;3.67;;;2.80;99.90;;;;;;4942546;29;20177;-93
2023/01/24 07:41:21;;;;;;;6.47;3.70;;;2.80;99.90;;;;;;4957857;29;20235;-94
2023/01/24 07:43:46;;;;;;;11.93;4.30;;;2.70;68.30;;;;;;4957420;29;20427;-94
2023/01/24 07:46:12;;;;;;;7.40;4.07;;;2.60;1.00;;;;;;4956672;29;20270;-95
2023/01/24 07:48:37;;;;;;;5.20;4.07;;;2.60;24.90;;;;;;4940949;29;20705;-93
2023/01/24 07:51:03;;;;;;;5.40;3.30;;;2.60;1.00;;;;;;4941498;29;20210;-91
2023/01/24 07:53:28;;;;;;;4.97;3.20;;;2.60;1.00;;;;;;4940760;29;20233;-94
2023/01/24 07:55:57;;;;;;;4.30;2.10;;;2.60;1.00;;;;;;4940940;29;20184;-93
2023/01/24 07:58:23;;;;;;;8.60;6.00;;;2.60;1.00;;;;;;4941091;29;20669;-94
2023/01/24 08:00:48;;;;;;;12.00;7.07;;;2.60;1.00;;;;;;4941057;29;20413;-93
2023/01/24 08:03:14;;;;;;;14.97;11.30;;;2.70;1.00;;;;;;4961840;29;20174;-95
2023/01/24 08:05:39;;;;;;;13.13;8.87;;;2.70;1.00;;;;;;4949409;29;20242;-96
2023/01/24 08:08:05;;;;;;;7.87;5.80;;;2.70;1.00;;;;;;4940772;29;20202;-93
2023/01/24 08:10:31;;;;;;;11.33;6.07;;;2.70;1.00;;;;;;4957645;29;20197;-94
2023/01/24 08:12:57;;;;;;;9.77;6.13;;;2.70;1.00;;;;;;4941816;29;20421;-93
2023/01/24 08:15:22;;;;;;;6.47;4.30;;;2.60;1.00;;;;;;4958744;29;20169;-93
2023/01/24 08:17:48;;;;;;;5.93;4.33;;;2.60;1.00;;;;;;4959882;28;20408;-93
2023/01/24 08:20:14;;;;;;;3.77;3.10;;;2.70;1.00;;;;;;4960283;29;20189;-95
2023/01/24 08:22:43;;;;;;;5.83;4.10;;;2.80;1.00;;;;;;4944386;29;20204;-95
2023/01/24 08:25:11;;;;;;;6.70;4.80;;;2.70;1.00;;;;;;4941859;29;20424;-94
2023/01/24 08:27:41;;;;;;;9.33;4.90;;;2.70;1.00;;;;;;4940770;29;20401;-95
2023/01/24 08:30:09;;;;;;;8.63;7.40;;;2.70;15.80;;;;;;4940212;29;20473;-94
2023/01/24 08:32:35;;;;;;;12.97;8.33;;;2.70;1.00;;;;;;4956749;29;20492;-94
2023/01/24 08:35:00;;;;;;;14.53;10.93;;;2.70;1.00;;;;;;4939416;29;20434;-91
2023/01/24 08:37:25;;;;;;;4.13;3.67;;;2.70;1.00;;;;;;4967939;29;20175;-95
2023/01/24 08:39:51;;;;;;;5.83;3.43;;;2.70;1.00;;;;;;4968968;29;20177;-95
2023/01/24 08:42:16;;;;;;;8.03;3.60;;;2.70;1.00;;;;;;4970697;29;20240;-96
2023/01/24 08:44:42;;;;;;;7.53;3.50;;;2.80;17.50;;;;;;4970707;29;20173;-95
2023/01/24 08:47:07;;;;;;;4.47;3.53;;;2.70;1.00;;;;;;4969835;29;20186;-95
2023/01/24 08:49:33;;;;;;;3.47;2.50;;;2.70;1.00;;;;;;4970267;29;20559;-96
2023/01/24 08:51:58;;;;;;;6.73;3.60;;;2.70;1.00;;;;;;4955177;29;20169;-93
2023/01/24 08:54:28;;;;;;;9.20;3.50;;;2.70;7.10;;;;;;4951289;29;20204;-91
2023/01/24 08:56:54;;;;;;;7.03;4.23;;;2.70;1.00;;;;;;4966308;29;20174;-95
2023/01/24 08:59:20;;;;;;;11.33;9.73;;;2.70;1.00;;;;;;4947468;29;20421;-90
2023/01/24 09:01:46;;;;;;;7.23;5.40;;;2.70;1.00;;;;;;4959303;29;20420;-96
2023/01/24 09:04:12;;;;;;;12.00;9.40;;;2.80;1.00;;;;;;4941750;29;20452;-96
2023/01/24 09:06:40;;;;;;;32.50;16.90;;;2.80;1.00;;;;;;4957494;29;20590;-96
2023/01/24 09:09:06;;;;;;;15.50;9.50;;;2.80;1.00;;;;;;4940203;29;20613;-94
2023/01/24 09:11:31;;;;;;;23.70;12.23;;;2.70;1.00;;;;;;4945513;29;20424;-91
2023/01/24 09:13:57;;;;;;;8.07;5.30;;;2.70;1.00;;;;;;4959733;29;20239;-84
2023/01/24 09:16:27;;;;;;;11.80;4.17;;;2.80;1.00;;;;;;4957121;29;20638;-86
2023/01/24 09:18:53;;;;;;;9.93;4.57;;;2.80;1.00;;;;;;4955558;29;20166;-87
2023/01/24 09:21:20;;;;;;;8.60;3.80;;;2.80;1.00;;;;;;4938083;29;20428;-93
2023/01/24 09:23:45;;;;;;;5.87;3.23;;;2.80;1.00;;;;;;4938886;29;20417;-94
2023/01/24 09:26:11;;;;;;;6.83;3.83;;;2.80;1.00;;;;;;4954762;29;20425;-93
2023/01/24 09:28:37;;;;;;;7.80;3.60;;;2.80;1.00;;;;;;4955724;28;20420;-93
2023/01/24 09:31:08;;;;;;;7.17;3.43;;;2.80;1.00;;;;;;4964638;29;20217;-90
2023/01/24 09:33:34;;;;;;;8.07;4.47;;;2.80;1.00;;;;;;4962112;29;20177;-87
2023/01/24 09:36:02;;;;;;;7.10;3.37;;;2.80;1.00;;;;;;4942080;29;20456;-93
2023/01/24 09:38:29;;;;;;;7.10;3.67;;;2.80;1.00;;;;;;4941777;29;20416;-90
2023/01/24 09:41:04;;;;;;;7.07;4.90;;;2.80;1.00;;;;;;4941490;29;20523;-88
2023/01/24 09:43:38;;;;;;;7.57;3.80;;;2.90;1.00;;;;;;4941526;29;20420;-85
2023/01/24 09:46:24;;;;;;;6.73;5.20;;;2.70;1.00;;;;;;4957078;29;20416;-85
2023/01/24 09:49:14;;;;;;;9.20;4.80;;;2.80;1.00;;;;;;4958556;29;20409;-84
2023/01/24 09:51:53;;;;;;;7.70;4.00;;;2.70;1.00;;;;;;4958112;29;20448;-94
2023/01/24 09:54:47;;;;;;;5.53;3.33;;;2.80;1.00;;;;;;4941359;29;20425;-84
2023/01/24 09:57:26;;;;;;;8.67;5.50;;;2.80;1.00;;;;;;4941355;29;20409;-86
2023/01/24 09:59:58;;;;;;;7.40;4.20;;;2.80;1.00;;;;;;4940860;29;20472;-84
2023/01/24 10:02:27;;;;;;;7.87;3.70;;;2.90;1.00;;;;;;4958320;29;20430;-84
2023/01/24 10:04:52;;;;;;;7.13;4.43;;;2.80;1.00;;;;;;4957662;29;20422;-86
2023/01/24 10:07:41;;;;;;;6.27;3.10;;;2.80;1.00;;;;;;4958654;29;20788;-94
2023/01/24 10:10:40;;;;;;;8.07;5.10;;;2.90;1.00;;;;;;4958284;29;20254;-92
2023/01/24 10:13:15;;;;;;;6.53;3.50;;;2.90;1.00;;;;;;4957472;29;20439;-92
2023/01/24 10:15:59;;;;;;;5.00;3.70;;;3.00;1.00;;;;;;4957348;28;20420;-92
2023/01/24 10:18:36;;;;;;;9.13;4.13;;;2.90;1.00;;;;;;4957511;29;20786;-91
2023/01/24 10:21:27;;;;;;;5.80;3.03;;;2.90;1.00;;;;;;4957288;29;20434;-84
2023/01/24 10:24:11;;;;;;;5.60;3.97;;;2.90;1.00;;;;;;4957158;29;20531;-88
2023/01/24 10:26:48;;;;;;;5.67;3.70;;;2.90;1.00;;;;;;4958620;29;20406;-91
2023/01/24 10:29:18;;;;;;;11.60;3.80;;;2.80;1.00;;;;;;4940845;29;20453;-92
2023/01/24 10:31:59;;;;;;;6.00;3.43;;;2.90;1.00;;;;;;4958588;29;20429;-93
2023/01/24 10:34:24;;;;;;;6.43;4.00;;;2.90;99.90;;;;;;4958697;29;20404;-90
2023/01/24 10:37:08;;;;;;;9.40;5.00;;;2.80;1.00;;;;;;4957261;28;20487;-94
2023/01/24 10:39:45;;;;;;;4.60;3.03;;;2.90;1.00;;;;;;4958068;29;20261;-92
2023/01/24 10:42:37;;;;;;;6.80;4.33;;;3.00;1.00;;;;;;4956617;28;20889;-90
2023/01/24 10:45:54;;;;;;;7.13;4.63;;;2.90;1.00;;;;;;4953547;29;20418;-87
2023/01/24 10:48:44;;;;;;;6.97;3.63;;;2.90;1.00;;;;;;4919758;29;20418;-92
2023/01/24 10:51:14;;;;;;;3.97;2.87;;;2.90;1.00;;;;;;4957040;29;20476;-93
2023/01/24 10:53:40;;;;;;;9.90;3.87;;;2.90;1.00;;;;;;4957160;28;20467;-90
2023/01/24 10:56:06;;;;;;;3.30;2.80;;;2.90;1.00;;;;;;4941067;29;20516;-85
2023/01/24 10:58:40;;;;;;;5.10;3.13;;;2.90;1.00;;;;;;4945617;29;20202;-85
2023/01/24 11:01:18;;;;;;;6.87;3.90;;;2.90;1.00;;;;;;4962013;29;20414;-85
2023/01/24 11:03:45;;;;;;;6.83;4.33;;;2.90;1.00;;;;;;4956654;29;20472;-85
2023/01/24 11:06:28;;;;;;;6.50;4.10;;;2.90;1.00;;;;;;4936803;29;20452;-85
2023/01/24 11:08:55;;;;;;;7.43;4.70;;;2.90;1.00;;;;;;4952892;29;20959;-89
2023/01/24 11:11:29;;;;;;;9.17;4.63;;;2.90;1.00;;;;;;4952044;29;20448;-91
2023/01/24 11:14:01;;;;;;;5.57;4.33;;;2.90;1.00;;;;;;4936960;29;20449;-92
2023/01/24 11:16:41;;;;;;;7.33;5.23;;;3.00;1.00;;;;;;4954130;29;23244;-85
2023/01/24 11:19:26;;;;;;;5.37;4.00;;;3.00;1.00;;;;;;4936010;29;20464;-89
2023/01/24 11:21:57;;;;;;;5.67;3.47;;;3.00;1.00;;;;;;4953669;29;20433;-91
2023/01/24 11:24:23;;;;;;;10.53;5.20;;;3.00;99.90;;;;;;4954390;29;20448;-92
2023/01/24 11:27:16;;;;;;;7.93;4.53;;;3.00;1.00;;;;;;4936795;29;20511;-90
2023/01/24 11:29:41;;;;;;;6.27;3.50;;;3.00;1.00;;;;;;4934916;29;20468;-84
2023/01/24 11:32:19;;;;;;;7.20;4.63;;;2.90;1.00;;;;;;4936394;29;20827;-89
2023/01/24 11:34:50;;;;;;;10.27;4.80;;;3.00;1.00;;;;;;4951756;29;20181;-92
2023/01/24 11:37:47;;;;;;;10.40;6.10;;;3.00;1.00;;;;;;4934247;29;20456;-84
2023/01/24 11:40:34;;;;;;;6.07;5.13;;;2.90;99.90;;;;;;4952428;29;20516;-84
2023/01/24 11:43:18;;;;;;;7.80;5.40;;;3.00;1.00;;;;;;4954564;29;20483;-88
2023/01/24 11:46:22;;;;;;;6.73;5.10;;;2.90;1.00;;;;;;4934549;29;20446;-89
2023/01/24 11:49:02;;;;;;;7.90;7.10;;;3.00;1.00;;;;;;4951960;29;20456;-85
2023/01/24 11:51:34;;;;;;;11.90;7.63;;;2.90;1.00;;;;;;4952014;29;20457;-91
2023/01/24 11:54:30;;;;;;;7.63;5.60;;;3.00;1.00;;;;;;4949781;28;20472;-84
2023/01/24 11:56:59;;;;;;;5.73;4.20;;;2.90;1.00;;;;;;4939760;29;20777;-88
2023/01/24 12:00:03;;;;;;;7.60;5.43;;;2.90;1.00;;;;;;4951583;29;20436;-85
2023/01/24 12:02:35;;;;;;;8.80;5.27;;;2.80;1.00;;;;;;4927916;29;20539;-86
2023/01/24 12:05:25;;;;;;;8.03;4.50;;;3.00;1.00;;;;;;4952194;29;20436;-87
2023/01/24 12:08:27;;;;;;;10.73;5.03;;;3.00;1.00;;;;;;4955679;29;20524;-83
2023/01/24 12:11:10;;;;;;;9.70;5.20;;;2.90;1.00;;;;;;4947537;29;20481;-84
2023/01/24 12:13:50;;;;;;;8.73;4.63;;;2.90;1.00;;;;;;4951230;29;20444;-87
2023/01/24 12:16:42;;;;;;;11.20;5.37;;;2.80;1.00;;;;;;4934761;29;20982;-86
2023/01/24 12:19:42;;;;;;;6.67;4.33;;;2.80;1.00;;;;;;4953254;29;20440;-84
2023/01/24 12:22:18;;;;;;;5.83;3.80;;;2.80;1.00;;;;;;4951043;29;22427;-84
2023/01/24 12:24:50;;;;;;;7.13;4.83;;;2.90;1.00;;;;;;4928788;29;20461;-87
2023/01/24 12:27:20;;;;;;;4.87;4.27;;;2.80;1.00;;;;;;4956351;29;20440;-84
2023/01/24 12:30:02;;;;;;;7.33;4.80;;;2.70;1.00;;;;;;4954798;29;20550;-84
2023/01/24 12:32:30;;;;;;;10.00;6.13;;;2.80;1.00;;;;;;4953572;29;20535;-83
2023/01/24 12:35:23;;;;;;;6.47;5.13;;;2.70;1.00;;;;;;4952857;29;20448;-86
2023/01/24 12:38:01;;;;;;;13.43;6.60;;;2.70;1.00;;;;;;4952626;29;20806;-83
2023/01/24 12:40:53;;;;;;;8.80;6.43;;;2.70;1.00;;;;;;4951258;29;20472;-88
2023/01/24 12:43:58;;;;;;;6.03;4.57;;;2.80;1.00;;;;;;4953035;29;20437;-88
2023/01/24 12:46:37;;;;;;;5.90;3.70;;;2.70;1.00;;;;;;4950849;29;20441;-90
2023/01/24 12:49:38;;;;;;;10.73;5.00;;;2.80;1.00;;;;;;4953060;29;20475;-90
2023/01/24 12:52:17;;;;;;;9.40;5.00;;;2.80;1.00;;;;;;4934553;29;20904;-91
2023/01/24 12:54:50;;;;;;;7.27;4.80;;;2.90;1.00;;;;;;4935960;29;20442;-84
2023/01/24 12:57:37;;;;;;;8.87;4.50;;;2.90;1.00;;;;;;4935643;29;20449;-83
2023/01/24 13:00:05;;;;;;;6.40;3.97;;;2.90;1.00;;;;;;4957245;29;20799;-87
2023/01/24 13:03:13;;;;;;;5.90;4.70;;;2.90;1.00;;;;;;4941935;29;20445;-89
2023/01/24 13:06:08;;;;;;;8.63;4.03;;;3.00;1.00;;;;;;4956983;28;20443;-89
2023/01/24 13:08:54;;;;;;;7.07;4.57;;;2.80;1.00;;;;;;4941039;29;20453;-90
2023/01/24 13:11:22;;;;;;;7.00;5.13;;;2.90;1.00;;;;;;4957696;29;20499;-91
2023/01/24 13:14:13;;;;;;;9.43;5.43;;;3.00;1.00;;;;;;4940200;29;20433;-88
2023/01/24 13:16:52;;;;;;;6.20;4.40;;;3.00;1.00;;;;;;4937654;29;21025;-90
2023/01/24 13:19:24;;;;;;;8.33;5.83;;;2.90;1.00;;;;;;4951717;29;20432;-90
2023/01/24 13:21:50;;;;;;;9.13;5.67;;;2.90;1.00;;;;;;4957073;29;21006;-89
2023/01/24 13:24:30;;;;;;;9.10;4.83;;;2.80;1.00;;;;;;4954913;29;20436;-89
2023/01/24 13:27:21;;;;;;;10.97;7.07;;;2.70;1.00;;;;;;4955526;29;20442;-89
2023/01/24 13:30:09;;;;;;;7.67;6.80;;;2.70;1.00;;;;;;4955872;29;20489;-90
2023/01/24 13:32:38;;;;;;;11.10;5.97;;;2.70;1.00;;;;;;4955042;29;21031;-90
2023/01/24 13:35:23;;;;;;;7.07;5.60;;;2.70;1.00;;;;;;4956685;29;20432;-89
2023/01/24 13:37:51;;;;;;;9.57;5.97;;;2.70;1.00;;;;;;4957275;29;20991;-90
2023/01/24 13:40:17;;;;;;;8.60;6.50;;;2.70;1.00;;;;;;4957870;29;20428;-89
2023/01/24 13:42:43;;;;;;;6.33;4.77;;;2.70;1.00;;;;;;4957321;29;20878;-91
2023/01/24 13:45:25;;;;;;;9.87;6.10;;;2.70;1.00;;;;;;4957564;29;20244;-90
2023/01/24 13:47:52;;;;;;;11.30;5.90;;;2.60;1.00;;;;;;4957280;29;20440;-88
2023/01/24 13:50:19;;;;;;;10.50;5.40;;;2.50;1.00;;;;;;4957670;29;20587;-89
2023/01/24 13:52:47;;;;;;;9.10;5.53;;;2.60;1.00;;;;;;4957505;29;20925;-90
2023/01/24 13:55:19;;;;;;;8.47;5.60;;;2.60;1.00;;;;;;4964504;29;20441;-87
2023/01/24 13:57:45;;;;;;;8.23;5.50;;;2.60;1.00;;;;;;4959817;29;20740;-91
2023/01/24 14:00:20;;;;;;;9.53;4.77;;;2.70;1.00;;;;;;4953840;29;20416;-86
2023/01/24 14:02:51;;;;;;;8.40;6.43;;;2.80;1.00;;;;;;4947745;29;20419;-86
2023/01/24 14:05:29;;;;;;;8.30;6.50;;;2.50;1.00;;;;;;4941174;29;20413;-83
2023/01/24 14:08:20;;;;;;;9.87;5.37;;;2.50;1.00;;;;;;4945267;29;20426;-94
2023/01/24 14:10:53;;;;;;;7.33;5.90;;;2.50;1.00;;;;;;4942449;29;20469;-85
2023/01/24 14:13:46;;;;;;;11.87;6.90;;;2.50;1.00;;;;;;4938948;29;20790;-82
2023/01/24 14:16:24;;;;;;;7.73;6.63;;;2.50;1.00;;;;;;4937569;29;20481;-90
2023/01/24 14:19:12;;;;;;;11.10;5.43;;;2.50;1.00;;;;;;4938171;29;20441;-87
2023/01/24 14:22:07;;;;;;;10.57;6.77;;;2.50;1.00;;;;;;4937063;29;20435;-88
2023/01/24 14:24:50;;;;;;;7.87;6.17;;;2.40;1.00;;;;;;4938343;29;20426;-86
2023/01/24 14:27:46;;;;;;;8.70;5.80;;;2.30;1.00;;;;;;4936908;29;21009;-84
2023/01/24 14:30:25;;;;;;;9.87;6.73;;;2.30;1.00;;;;;;4921003;29;20584;-85
2023/01/24 14:33:04;;;;;;;10.77;6.30;;;2.40;12.30;;;;;;4937968;29;20466;-87
2023/01/24 14:35:50;;;;;;;8.90;6.00;;;2.40;15.30;;;;;;4938192;29;20410;-90
2023/01/24 14:38:18;;;;;;;7.70;4.83;;;2.40;1.00;;;;;;4920499;29;21017;-82
2023/01/24 14:40:50;;;;;;;9.97;6.47;;;2.40;1.00;;;;;;4937354;29;20537;-82
2023/01/24 14:43:16;;;;;;;9.53;6.23;;;2.40;1.00;;;;;;4937728;29;21100;-82